METAR Data
IDs: Format: Raw Decoded Include TAF

Data at: 1958 UTC 17 Nov 2019

PHNL 171953Z 00000KT 10SM FEW023 FEW033 SCT060 BKN250 29/19 A2997 RMK AO2 PRESFR SLP147 T02940189 $
PHNL 171853Z 09007KT 020V160 10SM FEW023 FEW040 SCT200 28/20 A2997 RMK AO2 SLP148 T02830200 $

PHNL 171731Z 1718/1824 VRB03KT P6SM FEW025 FEW040
  FM172000 04012KT P6SM VCSH SCT025 BKN050
  FM180500 05009KT P6SM VCSH SCT025 BKN045
  FM182000 07012KT P6SM VCSH SCT025 BKN045


PHOG 171954Z 04009KT 10SM FEW030 28/21 A2995 RMK AO2 SLP147 T02830211 $
PHOG 171854Z 17004KT 10SM FEW030 26/20 A2997 RMK AO2 SLP154 T02610200 $

PHOG 171731Z 1718/1818 03004KT P6SM VCSH FEW015 SCT026 BKN050
  FM172000 05015KT P6SM VCSH SCT025 BKN050
  FM180500 04011KT P6SM VCSH SCT020 BKN040 AMD LTD TO VIS AND WIND 1809/1816


PHKO 171953Z 25006KT 10SM SCT060 BKN080 BKN120 27/22 A2993 RMK AO2 SLP133 TSE 1945 T02720217
PHKO 171853Z 00000KT 10SM FEW050 BKN065 BKN100 28/21 A2994 RMK AO2 SLP139 TSB 1815 TS VC W MOV SW T02780211

PHKO 171731Z 1718/1818 04006KT P6SM FEW025 SCT050 BKN080
  FM172000 23009KT P6SM VCSH SCT030 BKN050
  FM180500 09004KT P6SM VCSH FEW040 SCT060


PHTO 171953Z 15007KT 10SM CLR 26/20 A2996 RMK AO2 SLP144 T02610200
PHTO 171853Z 22007KT 10SM SCT060 24/19 A2997 RMK AO2 SLP148 T02440189

PHTO 171731Z 1718/1818 24005KT P6SM VCSH FEW025 BKN040
  FM172000 05008KT P6SM VCSH SCT025 BKN050
  FM180500 25005KT P6SM VCSH FEW030 BKN040


PHLI 171953Z 36012KT 8SM BKN023 OVC029 25/22 A3002 RMK AO2 RAB33E43 SLP163 P0000 T02500222
PHLI 171853Z 35011KT 6SM BR FEW016 BKN027 OVC033 24/23 A3002 RMK AO2 RAE51 SLP161 P0007 T02390228

PHLI 171731Z 1718/1818 33009KT P6SM VCSH FEW020 BKN045
  TEMPO 1718/1721 5SM SHRA SCT015 BKN025
  FM172100 04012KT P6SM VCSH SCT025 BKN035
  FM180500 05014KT P6SM VCSH SCT025 BKN035